Time,TemperatureF,DewpointF,PressureIn,WindDirection,WindDirectionDegrees,WindSpeedMPH,WindSpeedGustMPH,Humidity,HourlyPrecipIn,Conditions,Clouds,dailyrainin,SolarRadiationWatts/m^2,SoftwareType,DateUTC
2013-10-09 00:05:00,57.7,55.4,30.02,East,80,0.0,4.0,92,0.00,,,0.00,0,Wunderground v.1.15,2013-10-09 04:05:00,
2013-10-09 00:10:00,57.7,55.4,30.02,East,80,0.0,4.0,92,0.00,,,0.00,0,Wunderground v.1.15,2013-10-09 04:10:00,
2013-10-09 00:15:00,57.5,55.2,30.02,East,80,0.0,4.0,92,0.00,,,0.00,0,Wunderground v.1.15,2013-10-09 04:15:00,
2013-10-09 00:20:00,57.3,55.0,30.02,East,80,0.0,4.0,92,0.00,,,0.00,0,Wunderground v.1.15,2013-10-09 04:20:00,
2013-10-09 00:30:00,57.1,54.8,30.02,East,80,0.0,4.0,92,0.00,,,0.00,0,Wunderground v.1.15,2013-10-09 04:30:00,
2013-10-09 00:40:00,56.8,54.5,30.02,East,80,0.0,4.0,92,0.00,,,0.00,0,Wunderground v.1.15,2013-10-09 04:40:00,
2013-10-09 00:50:00,56.7,54.7,30.02,East,80,0.0,4.0,93,0.00,,,0.00,0,Wunderground v.1.15,2013-10-09 04:50:00,
2013-10-09 00:55:00,56.6,54.6,30.01,East,80,0.0,4.0,93,0.00,,,0.00,0,Wunderground v.1.15,2013-10-09 04:55:00,
2013-10-09 01:00:00,56.5,54.5,30.01,East,80,0.0,0.0,93,0.00,,,0.00,0,Wunderground v.1.15,2013-10-09 05:00:00,
2013-10-09 01:05:00,56.4,54.4,30.01,East,80,0.0,0.0,93,0.00,,,0.00,0,Wunderground v.1.15,2013-10-09 05:05:00,
2013-10-09 01:10:00,56.3,54.3,30.01,East,80,0.0,0.0,93,0.00,,,0.00,0,Wunderground v.1.15,2013-10-09 05:10:00,
2013-10-09 01:20:00,56.2,54.2,30.01,East,80,0.0,0.0,93,0.00,,,0.00,0,Wunderground v.1.15,2013-10-09 05:20:00,
2013-10-09 01:30:00,56.0,54.0,30.01,East,80,0.0,0.0,93,0.00,,,0.00,0,Wunderground v.1.15,2013-10-09 05:30:00,
2013-10-09 01:40:00,55.8,53.8,30.00,East,80,0.0,0.0,93,0.00,,,0.00,0,Wunderground v.1.15,2013-10-09 05:40:00,
2013-10-09 01:50:00,55.7,54.0,30.00,East,80,0.0,0.0,94,0.00,,,0.00,0,Wunderground v.1.15,2013-10-09 05:50:00,
2013-10-09 02:00:00,55.7,54.0,30.00,East,80,0.0,0.0,94,0.00,,,0.00,0,Wunderground v.1.15,2013-10-09 06:00:00,
2013-10-09 02:05:00,55.5,53.8,30.00,East,80,0.0,1.0,94,0.00,,,0.00,0,Wunderground v.1.15,2013-10-09 06:05:00,
2013-10-09 02:10:00,55.3,53.6,30.00,East,80,0.0,0.0,94,0.00,,,0.00,0,Wunderground v.1.15,2013-10-09 06:10:00,
2013-10-09 02:20:00,55.1,53.4,30.00,East,80,0.0,0.0,94,0.00,,,0.00,0,Wunderground v.1.15,2013-10-09 06:20:00,
2013-10-09 02:30:00,54.9,53.2,30.00,East,80,0.0,0.0,94,0.00,,,0.00,0,Wunderground v.1.15,2013-10-09 06:30:00,
2013-10-09 02:40:00,54.8,53.1,30.00,East,80,0.0,0.0,94,0.00,,,0.00,0,Wunderground v.1.15,2013-10-09 06:40:00,
2013-10-09 02:50:00,54.7,53.3,30.00,East,80,0.0,0.0,95,0.00,,,0.00,0,Wunderground v.1.15,2013-10-09 06:50:00,
2013-10-09 03:00:00,54.7,53.3,30.00,East,80,0.0,0.0,95,0.00,,,0.00,0,Wunderground v.1.15,2013-10-09 07:00:00,
2013-10-09 03:10:00,54.6,53.2,30.00,East,80,0.0,0.0,95,0.00,,,0.00,0,Wunderground v.1.15,2013-10-09 07:10:00,
2013-10-09 03:15:00,54.5,53.1,30.00,East,80,0.0,0.0,95,0.00,,,0.00,0,Wunderground v.1.15,2013-10-09 07:15:00,
2013-10-09 03:25:00,54.3,52.9,30.00,East,80,0.0,0.0,95,0.00,,,0.00,0,Wunderground v.1.15,2013-10-09 07:25:00,
2013-10-09 03:30:00,54.2,52.8,30.00,East,80,0.0,0.0,95,0.00,,,0.00,0,Wunderground v.1.15,2013-10-09 07:30:00,
2013-10-09 03:35:00,54.2,52.8,30.00,East,80,0.0,0.0,95,0.00,,,0.00,0,Wunderground v.1.15,2013-10-09 07:35:00,
2013-10-09 03:45:00,54.1,52.7,29.99,East,80,0.0,0.0,95,0.00,,,0.00,0,Wunderground v.1.15,2013-10-09 07:45:00,
2013-10-09 03:55:00,54.1,52.7,29.99,East,80,0.0,0.0,95,0.00,,,0.00,0,Wunderground v.1.15,2013-10-09 07:55:00,
2013-10-09 04:05:00,54.0,52.6,29.99,East,80,0.0,0.0,95,0.00,,,0.00,0,Wunderground v.1.15,2013-10-09 08:05:00,
2013-10-09 04:15:00,54.0,52.6,29.99,East,80,0.0,0.0,95,0.00,,,0.00,0,Wunderground v.1.15,2013-10-09 08:15:00,
2013-10-09 04:20:00,53.9,52.5,29.99,East,80,0.0,0.0,95,0.00,,,0.00,0,Wunderground v.1.15,2013-10-09 08:20:00,
2013-10-09 04:30:00,53.7,52.3,29.99,East,80,0.0,0.0,95,0.00,,,0.00,0,Wunderground v.1.15,2013-10-09 08:30:00,
2013-10-09 04:40:00,53.5,52.1,29.99,East,80,0.0,0.0,95,0.00,,,0.00,0,Wunderground v.1.15,2013-10-09 08:40:00,
2013-10-09 04:50:00,53.4,52.0,29.99,East,80,0.0,0.0,95,0.00,,,0.00,0,Wunderground v.1.15,2013-10-09 08:50:00,
2013-10-09 05:00:00,53.3,51.9,29.99,East,80,0.0,0.0,95,0.00,,,0.00,0,Wunderground v.1.15,2013-10-09 09:00:00,
2013-10-09 05:10:00,53.2,51.8,29.99,East,80,0.0,0.0,95,0.00,,,0.00,0,Wunderground v.1.15,2013-10-09 09:10:00,
2013-10-09 05:20:00,53.1,51.7,29.99,East,80,0.0,0.0,95,0.00,,,0.00,0,Wunderground v.1.15,2013-10-09 09:20:00,
2013-10-09 05:25:00,53.1,51.7,29.99,East,80,0.0,0.0,95,0.00,,,0.00,0,Wunderground v.1.15,2013-10-09 09:25:00,
2013-10-09 05:35:00,53.0,51.6,30.00,East,80,0.0,0.0,95,0.00,,,0.00,0,Wunderground v.1.15,2013-10-09 09:35:00,
2013-10-09 05:45:00,52.9,51.5,30.00,East,80,0.0,0.0,95,0.00,,,0.00,0,Wunderground v.1.15,2013-10-09 09:45:00,
2013-10-09 05:55:00,52.8,51.7,30.00,East,80,0.0,0.0,96,0.00,,,0.00,0,Wunderground v.1.15,2013-10-09 09:55:00,
2013-10-09 06:05:00,52.7,51.3,30.00,East,80,0.0,0.0,95,0.00,,,0.00,0,Wunderground v.1.15,2013-10-09 10:05:00,
2013-10-09 06:15:00,52.6,51.2,30.00,East,80,0.0,0.0,95,0.00,,,0.00,0,Wunderground v.1.15,2013-10-09 10:15:00,
2013-10-09 06:20:00,52.5,51.1,30.00,East,80,0.0,0.0,95,0.00,,,0.00,0,Wunderground v.1.15,2013-10-09 10:20:00,
2013-10-09 06:30:00,52.4,51.0,30.00,East,80,0.0,0.0,95,0.00,,,0.00,0,Wunderground v.1.15,2013-10-09 10:30:00,
2013-10-09 06:40:00,52.4,51.3,30.00,East,80,0.0,0.0,96,0.00,,,0.00,0,Wunderground v.1.15,2013-10-09 10:40:00,
2013-10-09 06:50:00,52.3,51.2,30.00,East,80,0.0,0.0,96,0.00,,,0.00,0,Wunderground v.1.15,2013-10-09 10:50:00,
2013-10-09 06:55:00,52.3,51.2,30.00,East,80,0.0,0.0,96,0.00,,,0.00,0,Wunderground v.1.15,2013-10-09 10:55:00,
2013-10-09 07:00:00,52.3,51.2,30.00,East,80,0.0,0.0,96,0.00,,,0.00,0,Wunderground v.1.15,2013-10-09 11:00:00,
2013-10-09 07:10:00,52.2,51.1,30.01,East,80,0.0,0.0,96,0.00,,,0.00,0,Wunderground v.1.15,2013-10-09 11:10:00,
2013-10-09 07:20:00,52.1,50.7,30.01,East,80,0.0,0.0,95,0.00,,,0.00,0,Wunderground v.1.15,2013-10-09 11:20:00,
2013-10-09 07:25:00,52.0,50.6,30.01,East,80,0.0,0.0,95,0.00,,,0.00,0,Wunderground v.1.15,2013-10-09 11:25:00,
2013-10-09 07:30:00,51.9,50.5,30.01,East,80,0.0,0.0,95,0.00,,,0.00,0,Wunderground v.1.15,2013-10-09 11:30:00,
2013-10-09 07:40:00,51.8,50.4,30.01,East,80,0.0,0.0,95,0.00,,,0.00,0,Wunderground v.1.15,2013-10-09 11:40:00,
2013-10-09 07:50:00,51.7,50.6,30.01,East,80,0.0,0.0,96,0.00,,,0.00,0,Wunderground v.1.15,2013-10-09 11:50:00,
2013-10-09 08:00:00,51.7,50.6,30.01,East,80,0.0,0.0,96,0.00,,,0.00,0,Wunderground v.1.15,2013-10-09 12:00:00,
2013-10-09 08:10:00,51.5,50.4,30.02,East,80,0.0,0.0,96,0.00,,,0.00,0,Wunderground v.1.15,2013-10-09 12:10:00,
2013-10-09 08:15:00,51.5,50.4,30.03,East,80,0.0,0.0,96,0.00,,,0.00,5,Wunderground v.1.15,2013-10-09 12:15:00,
2013-10-09 08:25:00,51.4,50.3,30.03,East,80,0.0,0.0,96,0.00,,,0.00,7,Wunderground v.1.15,2013-10-09 12:25:00,
2013-10-09 08:30:00,51.5,50.4,30.03,East,80,0.0,0.0,96,0.00,,,0.00,9,Wunderground v.1.15,2013-10-09 12:30:00,
2013-10-09 08:35:00,51.5,50.4,30.03,East,80,0.0,0.0,96,0.00,,,0.00,11,Wunderground v.1.15,2013-10-09 12:35:00,
2013-10-09 08:45:00,51.6,50.5,30.03,East,80,0.0,0.0,96,0.00,,,0.00,12,Wunderground v.1.15,2013-10-09 12:45:00,
2013-10-09 08:50:00,51.7,50.6,30.03,East,80,0.0,0.0,96,0.00,,,0.00,14,Wunderground v.1.15,2013-10-09 12:50:00,
2013-10-09 08:55:00,51.8,50.7,30.04,East,80,0.0,0.0,96,0.00,,,0.00,16,Wunderground v.1.15,2013-10-09 12:55:00,
2013-10-09 09:05:00,52.0,50.9,30.04,East,80,0.0,0.0,96,0.00,,,0.00,19,Wunderground v.1.15,2013-10-09 13:05:00,
2013-10-09 09:15:00,52.4,51.3,30.04,East,80,0.0,0.0,96,0.00,,,0.00,23,Wunderground v.1.15,2013-10-09 13:15:00,
2013-10-09 09:25:00,52.8,52.0,30.05,East,80,0.0,0.0,97,0.00,,,0.00,26,Wunderground v.1.15,2013-10-09 13:25:00,
2013-10-09 09:30:00,53.1,52.3,30.05,East,80,0.0,0.0,97,0.00,,,0.00,26,Wunderground v.1.15,2013-10-09 13:30:00,
2013-10-09 09:35:00,53.4,52.6,30.05,East,80,0.0,0.0,97,0.00,,,0.00,26,Wunderground v.1.15,2013-10-09 13:35:00,
2013-10-09 09:45:00,54.1,53.0,30.05,East,79,0.0,0.0,96,0.00,,,0.00,37,Wunderground v.1.15,2013-10-09 13:45:00,
2013-10-09 09:50:00,54.4,53.3,30.05,East,79,0.0,0.0,96,0.00,,,0.00,37,Wunderground v.1.15,2013-10-09 13:50:00,
2013-10-09 09:55:00,54.8,53.7,30.05,East,79,0.0,0.0,96,0.00,,,0.00,30,Wunderground v.1.15,2013-10-09 13:55:00,
2013-10-09 10:00:00,55.2,53.8,30.06,East,79,0.0,0.0,95,0.00,,,0.00,33,Wunderground v.1.15,2013-10-09 14:00:00,
2013-10-09 10:10:00,56.0,54.3,30.06,East,79,0.0,0.0,94,0.00,,,0.00,33,Wunderground v.1.15,2013-10-09 14:10:00,
2013-10-09 10:15:00,56.3,54.6,30.07,East,79,0.0,0.0,94,0.00,,,0.00,33,Wunderground v.1.15,2013-10-09 14:15:00,
2013-10-09 10:25:00,57.2,55.2,30.07,SE,144,0.0,0.0,93,0.00,,,0.00,44,Wunderground v.1.15,2013-10-09 14:25:00,
2013-10-09 10:35:00,58.3,56.0,30.07,SE,144,0.0,0.0,92,0.00,,,0.00,40,Wunderground v.1.15,2013-10-09 14:35:00,
2013-10-09 10:45:00,59.4,56.8,30.07,SE,144,0.0,0.0,91,0.00,,,0.00,457,Wunderground v.1.15,2013-10-09 14:45:00,
2013-10-09 10:55:00,61.3,58.0,30.08,SE,142,0.0,0.0,89,0.00,,,0.00,439,Wunderground v.1.15,2013-10-09 14:55:00,
2013-10-09 11:00:00,62.4,57.2,30.08,SE,143,0.0,0.0,83,0.00,,,0.00,74,Wunderground v.1.15,2013-10-09 15:00:00,
2013-10-09 11:10:00,63.8,58.5,30.08,SE,143,0.0,0.0,83,0.00,,,0.00,276,Wunderground v.1.15,2013-10-09 15:10:00,
2013-10-09 11:20:00,65.0,58.0,30.08,East,96,0.0,0.0,78,0.00,,,0.00,555,Wunderground v.1.15,2013-10-09 15:20:00,
2013-10-09 11:30:00,67.1,60.0,30.08,NW,319,0.0,0.0,78,0.00,,,0.00,589,Wunderground v.1.15,2013-10-09 15:30:00,
2013-10-09 11:40:00,68.9,60.3,30.08,WNW,293,0.0,2.0,74,0.00,,,0.00,612,Wunderground v.1.15,2013-10-09 15:40:00,
2013-10-09 11:50:00,70.4,59.7,30.08,South,174,0.0,0.0,69,0.00,,,0.00,636,Wunderground v.1.15,2013-10-09 15:50:00,
2013-10-09 11:55:00,71.2,59.7,30.08,South,174,0.0,0.0,67,0.00,,,0.00,647,Wunderground v.1.15,2013-10-09 15:55:00,
2013-10-09 12:00:00,71.9,60.3,30.08,South,171,0.0,0.0,67,0.00,,,0.00,661,Wunderground v.1.15,2013-10-09 16:00:00,
2013-10-09 12:05:00,72.9,60.4,30.08,South,169,0.0,1.0,65,0.00,,,0.00,668,Wunderground v.1.15,2013-10-09 16:05:00,
2013-10-09 12:10:00,73.4,60.5,30.08,WSW,244,0.0,0.0,64,0.00,,,0.00,679,Wunderground v.1.15,2013-10-09 16:10:00,
2013-10-09 12:15:00,73.6,59.3,30.08,WNW,297,1.0,1.0,61,0.00,,,0.00,686,Wunderground v.1.15,2013-10-09 16:15:00,
2013-10-09 12:25:00,75.0,61.1,30.08,West,279,0.0,1.0,62,0.00,,,0.00,700,Wunderground v.1.15,2013-10-09 16:25:00,
2013-10-09 12:35:00,75.0,59.2,30.08,West,259,1.0,2.0,58,0.00,,,0.00,721,Wunderground v.1.15,2013-10-09 16:35:00,
2013-10-09 12:40:00,75.5,59.2,30.08,NW,313,0.0,0.0,57,0.00,,,0.00,545,Wunderground v.1.15,2013-10-09 16:40:00,
2013-10-09 12:50:00,75.3,59.0,30.07,SSE,165,0.0,0.0,57,0.00,,,0.00,738,Wunderground v.1.15,2013-10-09 16:50:00,
2013-10-09 12:55:00,75.7,56.3,30.08,WSW,246,0.0,2.0,51,0.00,,,0.00,747,Wunderground v.1.15,2013-10-09 16:55:00,
2013-10-09 13:00:00,75.4,58.1,30.08,West,271,1.0,1.0,55,0.00,,,0.00,752,Wunderground v.1.15,2013-10-09 17:00:00,
2013-10-09 13:10:00,74.7,56.4,30.07,SSW,193,2.0,2.0,53,0.00,,,0.00,763,Wunderground v.1.15,2013-10-09 17:10:00,
2013-10-09 13:15:00,74.5,57.3,30.07,West,266,2.0,3.0,55,0.00,,,0.00,765,Wunderground v.1.15,2013-10-09 17:15:00,
2013-10-09 13:25:00,76.6,57.7,30.06,NW,313,0.0,3.0,52,0.00,,,0.00,772,Wunderground v.1.15,2013-10-09 17:25:00,
2013-10-09 13:35:00,77.8,57.7,30.06,WNW,294,1.0,3.0,50,0.00,,,0.00,775,Wunderground v.1.15,2013-10-09 17:35:00,
2013-10-09 13:40:00,77.7,57.6,30.05,WNW,292,1.0,1.0,50,0.00,,,0.00,775,Wunderground v.1.15,2013-10-09 17:40:00,
2013-10-09 13:45:00,77.4,56.2,30.05,SSW,200,2.0,2.0,48,0.00,,,0.00,780,Wunderground v.1.15,2013-10-09 17:45:00,
2013-10-09 13:55:00,76.8,57.3,30.05,North,10,1.0,3.0,51,0.00,,,0.00,780,Wunderground v.1.15,2013-10-09 17:55:00,
2013-10-09 14:00:00,77.1,58.1,30.04,North,360,0.0,3.0,52,0.00,,,0.00,784,Wunderground v.1.15,2013-10-09 18:00:00,
2013-10-09 14:05:00,77.7,60.2,30.04,NNE,26,0.0,3.0,55,0.00,,,0.00,780,Wunderground v.1.15,2013-10-09 18:05:00,
2013-10-09 14:10:00,78.6,59.0,30.04,WSW,239,0.0,3.0,51,0.00,,,0.00,782,Wunderground v.1.15,2013-10-09 18:10:00,
2013-10-09 14:20:00,78.2,57.5,30.03,WNW,286,1.0,3.0,49,0.00,,,0.00,780,Wunderground v.1.15,2013-10-09 18:20:00,
2013-10-09 14:25:00,77.6,56.9,30.03,NE,35,1.0,3.0,49,0.00,,,0.00,780,Wunderground v.1.15,2013-10-09 18:25:00,
2013-10-09 14:30:00,77.4,56.2,30.03,North,360,1.0,3.0,48,0.00,,,0.00,777,Wunderground v.1.15,2013-10-09 18:30:00,
2013-10-09 14:40:00,78.2,57.5,30.03,North,5,1.0,3.0,49,0.00,,,0.00,768,Wunderground v.1.15,2013-10-09 18:40:00,
2013-10-09 14:50:00,79.1,55.3,30.02,WNW,288,1.0,3.0,44,0.00,,,0.00,756,Wunderground v.1.15,2013-10-09 18:50:00,
2013-10-09 15:00:00,79.6,55.8,30.02,SSW,212,1.0,1.0,44,0.00,,,0.00,751,Wunderground v.1.15,2013-10-09 19:00:00,
2013-10-09 15:10:00,80.2,57.5,30.02,SE,134,0.0,3.0,46,0.00,,,0.00,740,Wunderground v.1.15,2013-10-09 19:10:00,
2013-10-09 15:15:00,80.9,56.3,30.02,NE,48,0.0,3.0,43,0.00,,,0.00,737,Wunderground v.1.15,2013-10-09 19:15:00,
2013-10-09 15:20:00,81.1,56.5,30.01,SE,136,0.0,3.0,43,0.00,,,0.00,724,Wunderground v.1.15,2013-10-09 19:20:00,
2013-10-09 15:30:00,79.9,54.8,30.01,NE,42,1.0,1.0,42,0.00,,,0.00,708,Wunderground v.1.15,2013-10-09 19:30:00,
2013-10-09 15:40:00,79.4,56.2,30.01,SSE,166,1.0,1.0,45,0.00,,,0.00,694,Wunderground v.1.15,2013-10-09 19:40:00,
2013-10-09 15:50:00,79.7,53.9,30.01,SSE,162,0.0,3.0,41,0.00,,,0.00,673,Wunderground v.1.15,2013-10-09 19:50:00,
2013-10-09 15:55:00,79.5,53.1,30.01,NNE,19,1.0,3.0,40,0.00,,,0.00,661,Wunderground v.1.15,2013-10-09 19:55:00,
2013-10-09 16:05:00,80.3,55.1,30.01,WSW,244,0.0,3.0,42,0.00,,,0.00,638,Wunderground v.1.15,2013-10-09 20:05:00,
2013-10-09 16:15:00,80.6,54.0,30.00,SSW,199,1.0,3.0,40,0.00,,,0.00,617,Wunderground v.1.15,2013-10-09 20:15:00,
2013-10-09 16:25:00,80.2,58.1,30.00,NE,34,1.0,3.0,47,0.00,,,0.00,589,Wunderground v.1.15,2013-10-09 20:25:00,
2013-10-09 16:30:00,79.8,55.3,30.00,NE,34,1.0,3.0,43,0.00,,,0.00,504,Wunderground v.1.15,2013-10-09 20:30:00,
2013-10-09 16:35:00,79.3,56.7,30.00,NE,36,0.0,3.0,46,0.00,,,0.00,53,Wunderground v.1.15,2013-10-09 20:35:00,
2013-10-09 16:40:00,78.7,53.7,30.00,SSW,211,1.0,3.0,42,0.00,,,0.00,118,Wunderground v.1.15,2013-10-09 20:40:00,
2013-10-09 16:45:00,78.5,54.8,30.00,SSW,208,1.0,3.0,44,0.00,,,0.00,54,Wunderground v.1.15,2013-10-09 20:45:00,
2013-10-09 16:55:00,78.4,57.7,30.00,SSW,200,0.0,3.0,49,0.00,,,0.00,156,Wunderground v.1.15,2013-10-09 20:55:00,
2013-10-09 17:05:00,78.2,55.1,30.00,SSE,149,0.0,3.0,45,0.00,,,0.00,473,Wunderground v.1.15,2013-10-09 21:05:00,
2013-10-09 17:15:00,78.5,57.2,30.00,SSW,194,0.0,3.0,48,0.00,,,0.00,109,Wunderground v.1.15,2013-10-09 21:15:00,
2013-10-09 17:25:00,78.5,57.7,30.00,West,259,0.0,3.0,49,0.00,,,0.00,70,Wunderground v.1.15,2013-10-09 21:25:00,
2013-10-09 17:30:00,78.4,58.8,30.00,West,259,0.0,3.0,51,0.00,,,0.00,167,Wunderground v.1.15,2013-10-09 21:30:00,
2013-10-09 17:40:00,77.9,56.6,29.99,NW,306,1.0,1.0,48,0.00,,,0.00,162,Wunderground v.1.15,2013-10-09 21:40:00,
2013-10-09 17:45:00,77.9,58.3,29.99,NW,306,0.0,3.0,51,0.00,,,0.00,39,Wunderground v.1.15,2013-10-09 21:45:00,
2013-10-09 17:50:00,77.6,58.0,29.99,NW,306,0.0,3.0,51,0.00,,,0.00,116,Wunderground v.1.15,2013-10-09 21:50:00,
2013-10-09 18:00:00,77.8,58.8,29.99,NW,306,0.0,3.0,52,0.00,,,0.00,294,Wunderground v.1.15,2013-10-09 22:00:00,
2013-10-09 18:05:00,78.1,57.9,29.99,NW,306,0.0,3.0,50,0.00,,,0.00,274,Wunderground v.1.15,2013-10-09 22:05:00,
2013-10-09 18:10:00,77.9,57.8,29.99,WSW,245,0.0,3.0,50,0.00,,,0.00,251,Wunderground v.1.15,2013-10-09 22:10:00,
2013-10-09 18:20:00,77.0,58.6,29.99,WSW,245,0.0,3.0,53,0.00,,,0.00,49,Wunderground v.1.15,2013-10-09 22:20:00,
2013-10-09 18:30:00,76.4,58.5,29.99,WSW,245,0.0,3.0,54,0.00,,,0.00,26,Wunderground v.1.15,2013-10-09 22:30:00,
2013-10-09 18:35:00,76.1,58.2,29.99,WSW,245,0.0,3.0,54,0.00,,,0.00,25,Wunderground v.1.15,2013-10-09 22:35:00,
2013-10-09 18:45:00,75.5,58.2,29.99,WSW,245,0.0,3.0,55,0.00,,,0.00,23,Wunderground v.1.15,2013-10-09 22:45:00,
2013-10-09 18:55:00,74.8,59.0,29.99,WSW,245,0.0,3.0,58,0.00,,,0.00,19,Wunderground v.1.15,2013-10-09 22:55:00,
2013-10-09 19:00:00,74.6,58.8,29.99,WSW,245,0.0,0.0,58,0.00,,,0.00,18,Wunderground v.1.15,2013-10-09 23:00:00,
2013-10-09 19:10:00,73.9,59.6,29.99,WSW,245,0.0,2.0,61,0.00,,,0.00,14,Wunderground v.1.15,2013-10-09 23:10:00,
2013-10-09 19:20:00,73.2,58.9,29.99,WSW,245,0.0,2.0,61,0.00,,,0.00,7,Wunderground v.1.15,2013-10-09 23:20:00,
2013-10-09 19:30:00,72.3,59.4,29.99,WSW,245,0.0,2.0,64,0.00,,,0.00,0,Wunderground v.1.15,2013-10-09 23:30:00,
2013-10-09 19:35:00,71.8,59.8,29.99,WSW,245,0.0,2.0,66,0.00,,,0.00,0,Wunderground v.1.15,2013-10-09 23:35:00,
2013-10-09 19:40:00,71.4,60.3,29.99,WSW,245,0.0,2.0,68,0.00,,,0.00,0,Wunderground v.1.15,2013-10-09 23:40:00,
2013-10-09 19:50:00,70.6,60.7,29.99,WSW,245,0.0,2.0,71,0.00,,,0.00,0,Wunderground v.1.15,2013-10-09 23:50:00,
2013-10-09 20:00:00,69.5,60.5,29.99,WSW,245,0.0,2.0,73,0.00,,,0.00,0,Wunderground v.1.15,2013-10-10 00:00:00,
2013-10-09 20:10:00,68.5,59.9,29.99,WSW,245,0.0,2.0,74,0.00,,,0.00,0,Wunderground v.1.15,2013-10-10 00:10:00,
2013-10-09 20:15:00,68.1,59.9,29.98,WSW,245,0.0,2.0,75,0.00,,,0.00,0,Wunderground v.1.15,2013-10-10 00:15:00,
2013-10-09 20:20:00,67.7,59.9,29.99,WSW,245,0.0,2.0,76,0.00,,,0.00,0,Wunderground v.1.15,2013-10-10 00:20:00,
2013-10-09 20:30:00,67.2,60.1,29.99,WSW,245,0.0,2.0,78,0.00,,,0.00,0,Wunderground v.1.15,2013-10-10 00:30:00,
2013-10-09 20:35:00,67.0,60.6,29.99,WSW,245,0.0,2.0,80,0.00,,,0.00,0,Wunderground v.1.15,2013-10-10 00:35:00,
2013-10-09 20:45:00,66.5,60.1,29.99,WSW,245,0.0,2.0,80,0.00,,,0.00,0,Wunderground v.1.15,2013-10-10 00:45:00,
2013-10-09 20:55:00,66.0,59.7,29.99,WSW,245,0.0,2.0,80,0.00,,,0.00,0,Wunderground v.1.15,2013-10-10 00:55:00,
2013-10-09 21:05:00,65.3,59.3,30.00,WSW,245,0.0,2.0,81,0.00,,,0.00,0,Wunderground v.1.15,2013-10-10 01:05:00,
2013-10-09 21:10:00,65.1,59.5,30.00,WSW,245,0.0,2.0,82,0.00,,,0.00,0,Wunderground v.1.15,2013-10-10 01:10:00,
2013-10-09 21:20:00,64.6,59.7,30.00,WSW,245,0.0,2.0,84,0.00,,,0.00,0,Wunderground v.1.15,2013-10-10 01:20:00,
2013-10-09 21:30:00,64.3,59.4,30.00,WSW,245,0.0,2.0,84,0.00,,,0.00,0,Wunderground v.1.15,2013-10-10 01:30:00,
2013-10-09 21:40:00,63.8,58.5,30.00,WSW,245,0.0,2.0,83,0.00,,,0.00,0,Wunderground v.1.15,2013-10-10 01:40:00,
2013-10-09 21:50:00,63.4,58.5,30.00,WSW,245,0.0,2.0,84,0.00,,,0.00,0,Wunderground v.1.15,2013-10-10 01:50:00,
2013-10-09 21:55:00,63.1,58.5,30.00,WSW,245,0.0,2.0,85,0.00,,,0.00,0,Wunderground v.1.15,2013-10-10 01:55:00,
2013-10-09 22:05:00,63.0,59.4,30.01,WSW,245,0.0,2.0,88,0.00,,,0.00,0,Wunderground v.1.15,2013-10-10 02:05:00,
2013-10-09 22:15:00,62.8,59.5,30.01,WSW,245,0.0,2.0,89,0.00,,,0.00,0,Wunderground v.1.15,2013-10-10 02:15:00,
2013-10-09 22:20:00,62.7,59.4,30.02,WSW,245,0.0,2.0,89,0.00,,,0.00,0,Wunderground v.1.15,2013-10-10 02:20:00,
2013-10-09 22:30:00,62.5,59.2,30.01,WSW,245,0.0,2.0,89,0.00,,,0.00,0,Wunderground v.1.15,2013-10-10 02:30:00,
2013-10-09 22:40:00,62.1,58.5,30.01,WSW,245,0.0,2.0,88,0.00,,,0.00,0,Wunderground v.1.15,2013-10-10 02:40:00,
2013-10-09 22:50:00,61.7,58.4,30.01,WSW,245,0.0,2.0,89,0.00,,,0.00,0,Wunderground v.1.15,2013-10-10 02:50:00,
2013-10-09 23:00:00,61.6,58.6,30.02,WSW,245,0.0,2.0,90,0.00,,,0.00,0,Wunderground v.1.15,2013-10-10 03:00:00,
2013-10-09 23:10:00,61.3,58.7,30.02,WSW,245,0.0,2.0,91,0.00,,,0.00,0,Wunderground v.1.15,2013-10-10 03:10:00,
2013-10-09 23:20:00,61.2,58.9,30.02,WSW,245,0.0,2.0,92,0.00,,,0.00,0,Wunderground v.1.15,2013-10-10 03:20:00,
2013-10-09 23:25:00,61.1,58.8,30.02,WSW,245,0.0,2.0,92,0.00,,,0.00,0,Wunderground v.1.15,2013-10-10 03:25:00,
2013-10-09 23:35:00,60.8,58.2,30.03,NW,310,0.0,2.0,91,0.00,,,0.00,0,Wunderground v.1.15,2013-10-10 03:35:00,
2013-10-09 23:45:00,60.5,58.2,30.02,NW,310,0.0,2.0,92,0.00,,,0.00,0,Wunderground v.1.15,2013-10-10 03:45:00,
2013-10-09 23:50:00,60.5,58.2,30.02,NW,310,0.0,2.0,92,0.00,,,0.00,0,Wunderground v.1.15,2013-10-10 03:50:00,
2013-10-09 23:55:00,60.4,58.1,30.02,NW,310,0.0,2.0,92,0.00,,,0.00,0,Wunderground v.1.15,2013-10-10 03:55:00,